Time;durP1;ratioP1;P1;durP2;ratioP2;P2;SDS_P1;SDS_P2;PMS_P1;PMS_P2;Temp;Humidity;BMP_temperature;BMP_pressure;BME280_temperature;BME280_humidity;BME280_pressure;Samples;Min_cycle;Max_cycle;Signal;HPM_P1;HPM_P2
2023/07/01 00:02:19;;;;;;;4.25;2.25;;;;;;;;;;4914944;28;93176;-78
2023/07/01 00:04:46;;;;;;;6.53;2.25;;;;;;;;;;4911882;28;94938;-78
2023/07/01 00:07:13;;;;;;;15.43;3.38;;;;;;;;;;4903031;28;92509;-78
2023/07/01 00:09:39;;;;;;;5.15;1.65;;;;;;;;;;4913222;28;92302;-77
2023/07/01 00:12:06;;;;;;;12.05;2.42;;;;;;;;;;4917192;28;92447;-78
2023/07/01 00:14:32;;;;;;;5.95;2.33;;;;;;;;;;4905782;28;92946;-78
2023/07/01 00:17:03;;;;;;;7.65;2.20;;;;;;;;;;4918735;28;92790;-78
2023/07/01 00:19:30;;;;;;;6.63;2.35;;;;;;;;;;4902682;28;94450;-78
2023/07/01 00:21:56;;;;;;;10.70;2.17;;;;;;;;;;4917767;28;93208;-77
2023/07/01 00:24:23;;;;;;;7.82;2.80;;;;;;;;;;4903385;28;93825;-79
2023/07/01 00:26:49;;;;;;;9.55;2.40;;;;;;;;;;4925069;28;93671;-79
2023/07/01 00:29:15;;;;;;;16.00;2.80;;;;;;;;;;4912743;28;94874;-78
2023/07/01 00:31:42;;;;;;;7.28;2.50;;;;;;;;;;4903201;28;93787;-78
2023/07/01 00:34:09;;;;;;;4.60;2.22;;;;;;;;;;4903579;28;93054;-78
2023/07/01 00:36:35;;;;;;;4.45;2.15;;;;;;;;;;4921002;28;92340;-78
2023/07/01 00:39:03;;;;;;;10.43;2.35;;;;;;;;;;4915041;28;93209;-78
2023/07/01 00:41:29;;;;;;;17.30;3.17;;;;;;;;;;4895923;28;92836;-78
2023/07/01 00:43:56;;;;;;;10.68;2.90;;;;;;;;;;4914827;28;92501;-78
2023/07/01 00:46:23;;;;;;;9.57;2.67;;;;;;;;;;4898922;28;92487;-78
2023/07/01 00:48:49;;;;;;;8.57;2.60;;;;;;;;;;4919936;28;93131;-78
2023/07/01 00:51:16;;;;;;;6.20;2.30;;;;;;;;;;4913138;28;92987;-78
2023/07/01 00:53:43;;;;;;;8.70;3.25;;;;;;;;;;4904770;28;96496;-78
2023/07/01 00:56:10;;;;;;;11.25;2.50;;;;;;;;;;4901998;28;94192;-79
2023/07/01 00:58:37;;;;;;;8.60;2.33;;;;;;;;;;4913147;28;92482;-78
2023/07/01 01:01:07;;;;;;;9.35;2.58;;;;;;;;;;4922669;28;92490;-78
2023/07/01 01:03:42;;;;;;;6.93;2.58;;;;;;;;;;4901172;28;95340;-78
2023/07/01 01:06:17;;;;;;;8.38;3.08;;;;;;;;;;4914598;28;92479;-78
2023/07/01 01:08:49;;;;;;;14.48;2.58;;;;;;;;;;4865455;28;94782;-77
2023/07/01 01:11:16;;;;;;;11.05;2.92;;;;;;;;;;4908155;28;92238;-77
2023/07/01 01:13:46;;;;;;;5.68;2.50;;;;;;;;;;4877221;28;95829;-77
2023/07/01 01:16:13;;;;;;;5.38;3.03;;;;;;;;;;4904045;28;92404;-78
2023/07/01 01:18:42;;;;;;;5.63;2.30;;;;;;;;;;4898855;28;94882;-78
2023/07/01 01:21:11;;;;;;;7.22;2.75;;;;;;;;;;4919281;28;92277;-78
2023/07/01 01:23:39;;;;;;;13.95;2.78;;;;;;;;;;4902271;28;92934;-78
2023/07/01 01:26:18;;;;;;;15.27;2.67;;;;;;;;;;4896583;28;92701;-78
2023/07/01 01:28:46;;;;;;;10.13;2.38;;;;;;;;;;4906716;28;92277;-78
2023/07/01 01:31:15;;;;;;;9.95;2.67;;;;;;;;;;4908973;28;95489;-78
2023/07/01 01:33:42;;;;;;;6.47;3.03;;;;;;;;;;4899055;28;92141;-78
2023/07/01 01:36:11;;;;;;;8.65;2.20;;;;;;;;;;4882534;28;93823;-78
2023/07/01 01:38:40;;;;;;;9.50;2.60;;;;;;;;;;4881608;28;92239;-78
2023/07/01 01:41:12;;;;;;;6.47;2.42;;;;;;;;;;4894335;28;92880;-78
2023/07/01 01:43:39;;;;;;;8.02;3.03;;;;;;;;;;4879106;28;95003;-78
2023/07/01 01:46:07;;;;;;;9.32;2.97;;;;;;;;;;4874296;28;92112;-77
2023/07/01 01:48:34;;;;;;;10.27;2.45;;;;;;;;;;4881271;28;93120;-78
2023/07/01 01:51:01;;;;;;;9.40;2.80;;;;;;;;;;4877479;28;93009;-78
2023/07/01 01:53:28;;;;;;;7.25;2.47;;;;;;;;;;4878669;28;94410;-78
2023/07/01 01:55:55;;;;;;;9.15;2.53;;;;;;;;;;4882125;28;93752;-78
2023/07/01 01:58:22;;;;;;;4.88;2.25;;;;;;;;;;4883066;28;94356;-78
2023/07/01 02:00:49;;;;;;;9.05;2.78;;;;;;;;;;4881725;28;95609;-78
2023/07/01 02:03:16;;;;;;;10.77;2.70;;;;;;;;;;4883858;28;92826;-78
2023/07/01 02:05:43;;;;;;;11.27;2.50;;;;;;;;;;4874406;28;92180;-78
2023/07/01 02:08:09;;;;;;;12.80;2.90;;;;;;;;;;4881490;28;94971;-77
2023/07/01 02:10:36;;;;;;;8.60;2.83;;;;;;;;;;4880084;28;93984;-77
2023/07/01 02:13:03;;;;;;;9.10;2.83;;;;;;;;;;4878133;28;94939;-78
2023/07/01 02:15:29;;;;;;;14.60;2.90;;;;;;;;;;4893421;28;93100;-77
2023/07/01 02:17:57;;;;;;;6.07;2.80;;;;;;;;;;4884531;28;92255;-77
2023/07/01 02:20:24;;;;;;;9.75;3.50;;;;;;;;;;4881161;28;94117;-78
2023/07/01 02:22:50;;;;;;;7.85;2.85;;;;;;;;;;4880794;28;94232;-77
2023/07/01 02:25:17;;;;;;;8.60;2.70;;;;;;;;;;4879842;28;92123;-78
2023/07/01 02:27:43;;;;;;;5.90;3.13;;;;;;;;;;4885477;28;92827;-77
2023/07/01 02:30:10;;;;;;;8.55;3.20;;;;;;;;;;4899891;28;93731;-78
2023/07/01 02:32:37;;;;;;;3.00;2.00;;;;;;;;;;4881698;28;95447;-78
2023/07/01 02:35:04;;;;;;;7.97;2.75;;;;;;;;;;4880482;28;92819;-78
2023/07/01 02:37:31;;;;;;;6.97;2.53;;;;;;;;;;4885473;28;94059;-78
2023/07/01 02:39:58;;;;;;;6.10;2.35;;;;;;;;;;4876857;28;92523;-77
2023/07/01 02:42:24;;;;;;;8.13;2.25;;;;;;;;;;4876570;28;93888;-78
2023/07/01 02:44:51;;;;;;;5.68;2.20;;;;;;;;;;4879875;28;92466;-76
2023/07/01 02:47:18;;;;;;;4.40;1.90;;;;;;;;;;4896816;28;92673;-78
2023/07/01 02:49:44;;;;;;;4.10;2.10;;;;;;;;;;4877355;28;93238;-77
2023/07/01 02:52:15;;;;;;;11.70;2.45;;;;;;;;;;4875352;28;92504;-77
2023/07/01 02:54:42;;;;;;;9.70;2.50;;;;;;;;;;4886447;28;94691;-77
2023/07/01 02:57:09;;;;;;;6.32;2.55;;;;;;;;;;4871312;28;94906;-77
2023/07/01 02:59:37;;;;;;;5.70;2.28;;;;;;;;;;4864795;28;93382;-76
2023/07/01 03:02:04;;;;;;;13.32;3.50;;;;;;;;;;4888883;28;93978;-77
2023/07/01 03:04:34;;;;;;;10.10;2.83;;;;;;;;;;4887792;28;94639;-77
2023/07/01 03:07:01;;;;;;;10.15;2.58;;;;;;;;;;4890758;28;92388;-77
2023/07/01 03:09:28;;;;;;;7.45;2.63;;;;;;;;;;4876002;28;95697;-77
2023/07/01 03:11:55;;;;;;;9.80;2.42;;;;;;;;;;4876478;28;95586;-77
2023/07/01 03:14:21;;;;;;;9.23;2.63;;;;;;;;;;4876976;28;92704;-77
2023/07/01 03:16:49;;;;;;;6.72;2.55;;;;;;;;;;4864269;28;93620;-77
2023/07/01 03:19:16;;;;;;;6.28;2.30;;;;;;;;;;4857138;28;93281;-77
2023/07/01 03:21:46;;;;;;;7.20;2.70;;;;;;;;;;4880718;28;95325;-77
2023/07/01 03:24:13;;;;;;;4.60;2.90;;;;;;;;;;4878435;28;92526;-77
2023/07/01 03:26:40;;;;;;;8.02;3.35;;;;;;;;;;4872821;28;95590;-77
2023/07/01 03:29:07;;;;;;;5.68;2.33;;;;;;;;;;4887031;28;92999;-77
2023/07/01 03:31:34;;;;;;;11.32;3.13;;;;;;;;;;4876998;28;92369;-77
2023/07/01 03:34:01;;;;;;;3.78;2.60;;;;;;;;;;4884922;28;92559;-77
2023/07/01 03:36:28;;;;;;;5.65;2.70;;;;;;;;;;4899278;28;93174;-77
2023/07/01 03:38:56;;;;;;;13.13;2.53;;;;;;;;;;4913026;28;91928;-77
2023/07/01 03:41:22;;;;;;;9.27;2.65;;;;;;;;;;4904904;28;92567;-77
2023/07/01 03:43:48;;;;;;;5.57;2.17;;;;;;;;;;4913103;28;92545;-77
2023/07/01 03:46:16;;;;;;;3.20;2.05;;;;;;;;;;4914332;28;94928;-77
2023/07/01 03:48:43;;;;;;;5.07;2.20;;;;;;;;;;4920957;28;95344;-77
2023/07/01 03:51:10;;;;;;;8.93;2.42;;;;;;;;;;4899805;28;92495;-77
2023/07/01 03:53:38;;;;;;;7.65;2.72;;;;;;;;;;4912846;28;92566;-77
2023/07/01 03:56:05;;;;;;;8.10;2.80;;;;;;;;;;4916187;28;92443;-76
2023/07/01 03:58:31;;;;;;;4.82;2.80;;;;;;;;;;4901535;28;95485;-76
2023/07/01 04:00:58;;;;;;;10.07;3.65;;;;;;;;;;4910451;28;93073;-76
2023/07/01 04:03:24;;;;;;;4.13;2.72;;;;;;;;;;4915079;28;92350;-76
2023/07/01 04:05:51;;;;;;;12.05;2.85;;;;;;;;;;4913812;28;92764;-76
2023/07/01 04:08:18;;;;;;;8.25;2.90;;;;;;;;;;4899872;28;94527;-76
2023/07/01 04:10:45;;;;;;;4.07;2.22;;;;;;;;;;4922864;28;94878;-77
2023/07/01 04:13:12;;;;;;;2.92;2.63;;;;;;;;;;4915700;28;93829;-77
2023/07/01 04:15:39;;;;;;;11.60;3.05;;;;;;;;;;4913885;28;94443;-77
2023/07/01 04:18:05;;;;;;;9.55;3.30;;;;;;;;;;4915300;28;92523;-77
2023/07/01 04:20:32;;;;;;;6.65;2.65;;;;;;;;;;4916394;28;91698;-77
2023/07/01 04:22:58;;;;;;;8.02;2.90;;;;;;;;;;4911990;28;92837;-77
2023/07/01 04:25:28;;;;;;;12.82;3.13;;;;;;;;;;4917716;28;93201;-79
2023/07/01 04:27:55;;;;;;;3.05;2.30;;;;;;;;;;4921344;28;92089;-78
2023/07/01 04:30:21;;;;;;;7.25;2.83;;;;;;;;;;4900092;28;92476;-78
2023/07/01 04:32:48;;;;;;;9.90;3.30;;;;;;;;;;4901086;28;92401;-77
2023/07/01 04:35:14;;;;;;;4.07;2.28;;;;;;;;;;4917658;28;95213;-78
2023/07/01 04:37:41;;;;;;;3.38;2.58;;;;;;;;;;4917219;28;92313;-78
2023/07/01 04:40:09;;;;;;;6.85;2.58;;;;;;;;;;4916217;28;92506;-79
2023/07/01 04:42:35;;;;;;;5.53;3.00;;;;;;;;;;4903176;28;92813;-78
2023/07/01 04:45:05;;;;;;;5.65;3.17;;;;;;;;;;4895105;28;94762;-77
2023/07/01 04:47:31;;;;;;;9.10;3.17;;;;;;;;;;4902820;28;93003;-78
2023/07/01 04:49:58;;;;;;;6.30;3.28;;;;;;;;;;4919723;28;92549;-78
2023/07/01 04:52:25;;;;;;;5.90;3.35;;;;;;;;;;4917694;28;92109;-78
2023/07/01 04:54:52;;;;;;;6.43;3.03;;;;;;;;;;4915752;28;92418;-78
2023/07/01 04:57:18;;;;;;;6.63;3.10;;;;;;;;;;4900330;28;93273;-78
2023/07/01 04:59:45;;;;;;;5.88;3.40;;;;;;;;;;4914554;28;94861;-78
2023/07/01 05:02:11;;;;;;;8.75;3.83;;;;;;;;;;4913534;28;93920;-77
2023/07/01 05:04:38;;;;;;;7.38;4.68;;;;;;;;;;4889056;28;93161;-77
2023/07/01 05:07:05;;;;;;;6.97;3.63;;;;;;;;;;4918583;28;92454;-78
2023/07/01 05:09:32;;;;;;;5.65;3.58;;;;;;;;;;4909501;28;92326;-78
2023/07/01 05:11:58;;;;;;;5.25;3.50;;;;;;;;;;4919395;28;92838;-78
2023/07/01 05:14:25;;;;;;;7.85;3.33;;;;;;;;;;4921862;28;92824;-77
2023/07/01 05:16:51;;;;;;;5.03;3.40;;;;;;;;;;4901315;28;92991;-78
2023/07/01 05:19:18;;;;;;;8.80;4.43;;;;;;;;;;4881246;28;92477;-77
2023/07/01 05:21:49;;;;;;;8.15;4.28;;;;;;;;;;4908764;28;92927;-78
2023/07/01 05:24:16;;;;;;;7.55;4.00;;;;;;;;;;4899407;28;95621;-77
2023/07/01 05:26:51;;;;;;;7.18;4.13;;;;;;;;;;4908958;28;94101;-77
2023/07/01 05:29:20;;;;;;;11.35;3.40;;;;;;;;;;4918776;28;92391;-77
2023/07/01 05:31:48;;;;;;;5.80;4.05;;;;;;;;;;4904974;28;92545;-77
2023/07/01 05:34:15;;;;;;;6.45;4.30;;;;;;;;;;4906022;28;92906;-78
2023/07/01 05:36:41;;;;;;;8.25;4.30;;;;;;;;;;4899010;28;92452;-77
2023/07/01 05:39:08;;;;;;;10.80;3.85;;;;;;;;;;4914005;28;92495;-77
2023/07/01 05:41:34;;;;;;;4.35;3.42;;;;;;;;;;4901599;28;92846;-77
2023/07/01 05:44:01;;;;;;;3.92;3.47;;;;;;;;;;4921662;28;92527;-77
2023/07/01 05:46:30;;;;;;;4.70;3.85;;;;;;;;;;4891531;28;92548;-77
2023/07/01 05:48:56;;;;;;;4.85;3.42;;;;;;;;;;4916389;28;94873;-77
2023/07/01 05:51:23;;;;;;;6.60;4.25;;;;;;;;;;4915485;28;93283;-77
2023/07/01 05:53:49;;;;;;;6.10;3.90;;;;;;;;;;4918301;28;92540;-77
2023/07/01 05:56:16;;;;;;;4.85;4.32;;;;;;;;;;4908436;28;92413;-77
2023/07/01 05:58:43;;;;;;;5.55;4.20;;;;;;;;;;4902317;28;92502;-77
2023/07/01 06:01:09;;;;;;;4.57;4.18;;;;;;;;;;4906783;28;93479;-78
2023/07/01 06:03:36;;;;;;;5.00;3.50;;;;;;;;;;4890712;28;93956;-77
2023/07/01 06:06:02;;;;;;;4.32;3.95;;;;;;;;;;4923400;28;93481;-78
2023/07/01 06:08:29;;;;;;;4.75;4.07;;;;;;;;;;4924307;28;92243;-78
2023/07/01 06:10:55;;;;;;;4.65;3.95;;;;;;;;;;4924150;28;92867;-78
2023/07/01 06:13:21;;;;;;;6.47;3.83;;;;;;;;;;4919057;28;94660;-79
2023/07/01 06:15:48;;;;;;;6.95;3.78;;;;;;;;;;4923398;28;96863;-79
2023/07/01 06:18:15;;;;;;;4.20;3.90;;;;;;;;;;4920918;28;92466;-79
2023/07/01 06:20:42;;;;;;;8.32;4.35;;;;;;;;;;4921848;28;92477;-79
2023/07/01 06:23:10;;;;;;;4.80;4.20;;;;;;;;;;4905163;28;94745;-80
2023/07/01 06:25:40;;;;;;;11.00;4.88;;;;;;;;;;4909698;28;92451;-81
2023/07/01 06:28:07;;;;;;;5.30;4.80;;;;;;;;;;4908236;28;92136;-79
2023/07/01 06:30:33;;;;;;;5.50;4.90;;;;;;;;;;4916084;28;92590;-80
2023/07/01 06:32:59;;;;;;;5.18;4.80;;;;;;;;;;4892428;28;94654;-80
2023/07/01 06:35:26;;;;;;;8.23;4.63;;;;;;;;;;4927554;28;92366;-80
2023/07/01 06:37:53;;;;;;;6.25;5.45;;;;;;;;;;4900165;28;95036;-80
2023/07/01 06:40:19;;;;;;;6.10;5.53;;;;;;;;;;4910143;28;93974;-80
2023/07/01 06:42:46;;;;;;;7.45;4.93;;;;;;;;;;4911009;28;92355;-80
2023/07/01 06:45:13;;;;;;;5.15;4.45;;;;;;;;;;4905136;28;92849;-80
2023/07/01 06:47:39;;;;;;;5.15;4.75;;;;;;;;;;4909164;28;92453;-80
2023/07/01 06:50:06;;;;;;;8.40;5.60;;;;;;;;;;4901747;28;92320;-80
2023/07/01 06:52:33;;;;;;;6.40;5.80;;;;;;;;;;4921108;28;92162;-79
2023/07/01 06:54:59;;;;;;;5.65;5.13;;;;;;;;;;4924186;28;92757;-80
2023/07/01 06:57:27;;;;;;;7.05;5.40;;;;;;;;;;4932884;28;94681;-80
2023/07/01 06:59:53;;;;;;;7.65;5.68;;;;;;;;;;4914876;28;94933;-80
2023/07/01 07:02:20;;;;;;;5.90;5.35;;;;;;;;;;4916020;28;96030;-80
2023/07/01 07:04:49;;;;;;;7.28;6.13;;;;;;;;;;4917604;28;93183;-80
2023/07/01 07:07:15;;;;;;;9.75;6.13;;;;;;;;;;4916257;28;94537;-80
2023/07/01 07:09:42;;;;;;;10.13;6.15;;;;;;;;;;4915849;28;92423;-80
2023/07/01 07:12:09;;;;;;;9.07;6.90;;;;;;;;;;4916876;28;92497;-79
2023/07/01 07:14:35;;;;;;;9.80;8.65;;;;;;;;;;4900406;28;95100;-80
2023/07/01 07:17:02;;;;;;;7.88;7.25;;;;;;;;;;4910113;28;93301;-80
2023/07/01 07:19:28;;;;;;;9.15;6.60;;;;;;;;;;4922213;28;92054;-80
2023/07/01 07:21:55;;;;;;;7.30;6.60;;;;;;;;;;4917694;28;92306;-80
2023/07/01 07:24:21;;;;;;;8.35;7.28;;;;;;;;;;4912660;28;93019;-81
2023/07/01 07:26:55;;;;;;;8.45;6.97;;;;;;;;;;4916962;28;94237;-80
2023/07/01 07:29:22;;;;;;;8.80;7.20;;;;;;;;;;4919344;28;92320;-80
2023/07/01 07:31:49;;;;;;;7.60;6.90;;;;;;;;;;4921749;28;92352;-80
2023/07/01 07:34:16;;;;;;;8.80;7.93;;;;;;;;;;4921051;28;94395;-80
2023/07/01 07:36:43;;;;;;;7.88;7.15;;;;;;;;;;4919824;28;92347;-80
2023/07/01 07:39:12;;;;;;;9.20;8.30;;;;;;;;;;4919319;28;93679;-81
2023/07/01 07:41:39;;;;;;;10.43;8.52;;;;;;;;;;4906924;28;92625;-80
2023/07/01 07:44:06;;;;;;;8.77;7.82;;;;;;;;;;4900563;28;93051;-80
2023/07/01 07:46:33;;;;;;;11.07;8.43;;;;;;;;;;4902691;28;92508;-79
2023/07/01 07:48:59;;;;;;;10.27;9.18;;;;;;;;;;4903363;28;92127;-80
2023/07/01 07:51:26;;;;;;;9.95;9.02;;;;;;;;;;4899061;28;94924;-80
2023/07/01 07:53:53;;;;;;;10.65;7.97;;;;;;;;;;4916799;28;94157;-80
2023/07/01 07:56:20;;;;;;;8.82;7.85;;;;;;;;;;4912393;28;93555;-80
2023/07/01 07:58:46;;;;;;;8.38;7.57;;;;;;;;;;4913481;28;92492;-79
2023/07/01 08:01:13;;;;;;;8.20;7.40;;;;;;;;;;4906596;28;94130;-80
2023/07/01 08:03:40;;;;;;;7.63;6.93;;;;;;;;;;4921024;28;93249;-80
2023/07/01 08:06:07;;;;;;;8.13;7.22;;;;;;;;;;4910601;28;92324;-80
2023/07/01 08:08:34;;;;;;;8.18;7.45;;;;;;;;;;4884493;28;93460;-80
2023/07/01 08:11:01;;;;;;;7.95;7.05;;;;;;;;;;4902548;28;92243;-80
2023/07/01 08:13:28;;;;;;;8.70;7.03;;;;;;;;;;4918893;28;93196;-80
2023/07/01 08:15:54;;;;;;;7.65;6.85;;;;;;;;;;4900591;28;96980;-80
2023/07/01 08:18:21;;;;;;;8.20;7.05;;;;;;;;;;4905237;28;94936;-80
2023/07/01 08:20:48;;;;;;;6.38;5.78;;;;;;;;;;4901851;28;93256;-79
2023/07/01 08:23:15;;;;;;;7.30;6.63;;;;;;;;;;4918378;28;92423;-79
2023/07/01 08:25:42;;;;;;;6.40;5.80;;;;;;;;;;4906675;28;92394;-79
2023/07/01 08:28:09;;;;;;;6.15;5.55;;;;;;;;;;4912570;28;92446;-80
2023/07/01 08:30:35;;;;;;;6.25;5.68;;;;;;;;;;4916547;28;92514;-80
2023/07/01 08:33:02;;;;;;;5.50;5.10;;;;;;;;;;4915473;28;92964;-79
2023/07/01 08:35:28;;;;;;;6.35;5.85;;;;;;;;;;4917124;28;93679;-79
2023/07/01 08:37:55;;;;;;;7.13;5.78;;;;;;;;;;4903614;28;92620;-79
2023/07/01 08:40:22;;;;;;;5.20;4.72;;;;;;;;;;4896761;28;95498;-79
2023/07/01 08:42:52;;;;;;;4.43;4.13;;;;;;;;;;4892098;28;92358;-79
2023/07/01 08:45:24;;;;;;;5.03;4.63;;;;;;;;;;4885347;28;95474;-79
2023/07/01 08:47:50;;;;;;;;;;;;;;;;;;4915251;28;93048;-79
2023/07/01 08:50:20;;;;;;;4.95;4.63;;;;;;;;;;4900190;28;121517;-79
2023/07/01 08:52:51;;;;;;;5.15;4.80;;;;;;;;;;4900842;28;92488;-79
2023/07/01 08:55:17;;;;;;;4.60;4.30;;;;;;;;;;4916763;28;92821;-79
2023/07/01 08:57:44;;;;;;;4.35;4.07;;;;;;;;;;4903219;28;92029;-80
2023/07/01 09:00:17;;;;;;;4.70;4.30;;;;;;;;;;4906878;28;93844;-80
2023/07/01 09:02:44;;;;;;;8.13;4.70;;;;;;;;;;4908019;28;92682;-80
2023/07/01 09:05:10;;;;;;;5.95;4.60;;;;;;;;;;4906603;28;95798;-80
2023/07/01 09:07:40;;;;;;;5.35;4.85;;;;;;;;;;4908818;28;94290;-80
2023/07/01 09:10:07;;;;;;;5.20;4.80;;;;;;;;;;4917861;28;92560;-80
2023/07/01 09:12:33;;;;;;;5.63;5.15;;;;;;;;;;4914579;28;92036;-81
2023/07/01 09:15:04;;;;;;;5.30;4.93;;;;;;;;;;4911936;28;92269;-81
2023/07/01 09:17:32;;;;;;;5.55;5.05;;;;;;;;;;4902756;28;94354;-81
2023/07/01 09:20:00;;;;;;;5.55;5.20;;;;;;;;;;4917280;28;92501;-80
2023/07/01 09:22:27;;;;;;;10.77;6.20;;;;;;;;;;4900845;28;92311;-80
2023/07/01 09:24:55;;;;;;;6.68;6.03;;;;;;;;;;4904887;28;92263;-80
2023/07/01 09:27:21;;;;;;;6.95;6.45;;;;;;;;;;4906643;28;92395;-81
2023/07/01 09:29:48;;;;;;;6.85;6.25;;;;;;;;;;4897306;28;97015;-79
2023/07/01 09:32:28;;;;;;;6.35;5.78;;;;;;;;;;4907251;28;95154;-80
2023/07/01 09:34:57;;;;;;;8.70;6.25;;;;;;;;;;4901155;28;93278;-80
2023/07/01 09:37:26;;;;;;;7.53;5.78;;;;;;;;;;4899206;28;94109;-79
2023/07/01 09:40:17;;;;;;;7.03;6.32;;;;;;;;;;4915787;28;92926;-79
2023/07/01 09:42:54;;;;;;;6.13;5.63;;;;;;;;;;4889207;28;96235;-79
2023/07/01 09:45:21;;;;;;;6.30;5.80;;;;;;;;;;4902548;28;94867;-80
2023/07/01 09:47:48;;;;;;;11.77;5.75;;;;;;;;;;4924884;28;92803;-80
2023/07/01 09:50:30;;;;;;;7.13;5.93;;;;;;;;;;4895338;28;92918;-80
2023/07/01 09:52:57;;;;;;;6.35;5.80;;;;;;;;;;4916185;28;92504;-81
2023/07/01 09:55:23;;;;;;;7.05;6.38;;;;;;;;;;4897841;28;95546;-81
2023/07/01 09:57:52;;;;;;;6.90;5.10;;;;;;;;;;4910674;28;92462;-81
2023/07/01 10:00:20;;;;;;;5.78;5.30;;;;;;;;;;4911554;28;92489;-81
2023/07/01 10:02:47;;;;;;;5.22;4.90;;;;;;;;;;4906760;28;93473;-82
2023/07/01 10:05:15;;;;;;;5.82;5.05;;;;;;;;;;4914821;28;94260;-82
2023/07/01 10:07:44;;;;;;;5.03;4.63;;;;;;;;;;4891282;28;94486;-81
2023/07/01 10:10:18;;;;;;;12.77;5.38;;;;;;;;;;4912395;28;92305;-80
2023/07/01 10:12:45;;;;;;;5.25;4.57;;;;;;;;;;4895534;28;92435;-81
2023/07/01 10:15:13;;;;;;;4.35;4.05;;;;;;;;;;4904402;28;94122;-81
2023/07/01 10:17:45;;;;;;;4.28;4.07;;;;;;;;;;4896528;28;95015;-82
2023/07/01 10:20:23;;;;;;;6.65;4.30;;;;;;;;;;4906829;28;94619;-81
2023/07/01 10:22:54;;;;;;;4.00;3.70;;;;;;;;;;4903160;28;92479;-80
2023/07/01 10:25:47;;;;;;;5.57;4.93;;;;;;;;;;4913774;28;92455;-81
2023/07/01 10:28:14;;;;;;;4.82;4.53;;;;;;;;;;4902043;28;92659;-81
2023/07/01 10:30:47;;;;;;;4.72;4.28;;;;;;;;;;4905643;28;93561;-82
2023/07/01 10:33:33;;;;;;;11.82;3.90;;;;;;;;;;4906791;28;92964;-81
2023/07/01 10:36:03;;;;;;;5.65;4.43;;;;;;;;;;4921956;28;92135;-82
2023/07/01 10:38:33;;;;;;;6.28;4.72;;;;;;;;;;4927173;28;92158;-83
2023/07/01 10:40:59;;;;;;;3.10;2.90;;;;;;;;;;4906169;28;93527;-84
2023/07/01 10:43:30;;;;;;;7.13;2.45;;;;;;;;;;4894387;28;93246;-82
2023/07/01 10:46:10;;;;;;;2.20;2.10;;;;;;;;;;4903924;28;94916;-82
2023/07/01 10:49:03;;;;;;;2.63;2.42;;;;;;;;;;4921194;28;94036;-81
2023/07/01 10:51:33;;;;;;;1.80;1.70;;;;;;;;;;4919970;28;92533;-82
2023/07/01 10:54:07;;;;;;;3.17;1.70;;;;;;;;;;4925656;28;92037;-82
2023/07/01 10:56:35;;;;;;;2.20;1.77;;;;;;;;;;4921278;28;92561;-82
2023/07/01 10:59:31;;;;;;;3.10;1.92;;;;;;;;;;4896653;28;94760;-82
2023/07/01 11:02:01;;;;;;;2.28;2.08;;;;;;;;;;4913083;28;92373;-82
2023/07/01 11:04:47;;;;;;;4.25;2.72;;;;;;;;;;4903512;28;94083;-82
2023/07/01 11:07:21;;;;;;;2.97;2.78;;;;;;;;;;4911864;28;95301;-83
2023/07/01 11:09:48;;;;;;;5.10;2.90;;;;;;;;;;4921560;28;94659;-82
2023/07/01 11:12:15;;;;;;;7.22;3.03;;;;;;;;;;4920011;28;95456;-83
2023/07/01 11:14:41;;;;;;;5.10;3.63;;;;;;;;;;4911770;28;93584;-83
2023/07/01 11:17:18;;;;;;;5.80;4.05;;;;;;;;;;4919210;28;92358;-82
2023/07/01 11:19:45;;;;;;;8.75;4.80;;;;;;;;;;4903280;28;92526;-82
2023/07/01 11:22:13;;;;;;;6.03;4.28;;;;;;;;;;4911362;28;92538;-82
2023/07/01 11:24:40;;;;;;;10.70;4.90;;;;;;;;;;4907106;28;94928;-82
2023/07/01 11:27:08;;;;;;;5.35;4.28;;;;;;;;;;4907627;28;92594;-82
2023/07/01 11:29:35;;;;;;;9.32;4.65;;;;;;;;;;4925624;28;92662;-82
2023/07/01 11:32:06;;;;;;;5.88;3.97;;;;;;;;;;4919638;28;94738;-83
2023/07/01 11:34:32;;;;;;;5.68;4.40;;;;;;;;;;4929370;28;92443;-82
2023/07/01 11:36:59;;;;;;;5.78;5.20;;;;;;;;;;4916260;28;94726;-81
2023/07/01 11:39:27;;;;;;;10.30;4.88;;;;;;;;;;4925030;28;93567;-82
2023/07/01 11:41:55;;;;;;;10.40;4.90;;;;;;;;;;4923873;28;92077;-82
2023/07/01 11:44:22;;;;;;;5.28;4.65;;;;;;;;;;4889244;28;95613;-82
2023/07/01 11:46:49;;;;;;;10.05;4.25;;;;;;;;;;4916380;28;92444;-82
2023/07/01 11:49:22;;;;;;;17.90;4.40;;;;;;;;;;4915892;28;91851;-81
2023/07/01 11:52:06;;;;;;;7.32;3.78;;;;;;;;;;4920363;28;94503;-82
2023/07/01 11:54:37;;;;;;;6.97;4.80;;;;;;;;;;4894457;28;94006;-81
2023/07/01 11:57:14;;;;;;;6.53;4.18;;;;;;;;;;4906132;28;93087;-82
2023/07/01 11:59:45;;;;;;;7.57;4.70;;;;;;;;;;4912871;28;92546;-82
2023/07/01 12:02:12;;;;;;;8.60;4.95;;;;;;;;;;4919405;28;94890;-82
2023/07/01 12:04:39;;;;;;;8.32;4.72;;;;;;;;;;4908129;28;96222;-82
2023/07/01 12:07:08;;;;;;;7.22;5.20;;;;;;;;;;4923904;28;92425;-82
2023/07/01 12:09:37;;;;;;;7.80;4.68;;;;;;;;;;4927348;28;94353;-82
2023/07/01 12:12:03;;;;;;;5.57;4.45;;;;;;;;;;4929910;28;92273;-82
2023/07/01 12:14:30;;;;;;;10.60;3.75;;;;;;;;;;4938578;28;92973;-82
2023/07/01 12:16:57;;;;;;;14.55;4.53;;;;;;;;;;4923877;28;92088;-82
2023/07/01 12:19:24;;;;;;;4.22;3.92;;;;;;;;;;4893885;28;91707;-82
2023/07/01 12:21:52;;;;;;;11.10;4.35;;;;;;;;;;4906555;28;93869;-82
2023/07/01 12:24:23;;;;;;;7.03;4.47;;;;;;;;;;4928888;28;92812;-82
2023/07/01 12:26:53;;;;;;;6.93;3.85;;;;;;;;;;4925618;28;94884;-81
2023/07/01 12:29:20;;;;;;;8.20;3.63;;;;;;;;;;4930792;28;92740;-82
2023/07/01 12:31:49;;;;;;;18.63;4.15;;;;;;;;;;4925943;28;92017;-82
2023/07/01 12:34:16;;;;;;;9.82;3.47;;;;;;;;;;4923345;28;92294;-82
2023/07/01 12:36:43;;;;;;;10.98;3.75;;;;;;;;;;4924651;28;91976;-82
2023/07/01 12:39:10;;;;;;;5.38;4.40;;;;;;;;;;4896401;28;92104;-82
2023/07/01 12:41:37;;;;;;;8.45;4.43;;;;;;;;;;4931084;28;92465;-82
2023/07/01 12:44:08;;;;;;;8.32;5.70;;;;;;;;;;4935299;28;92262;-81
2023/07/01 12:46:39;;;;;;;8.93;4.68;;;;;;;;;;4922360;28;92652;-82
2023/07/01 12:49:06;;;;;;;10.07;5.20;;;;;;;;;;4922976;28;92476;-82
2023/07/01 12:51:34;;;;;;;9.10;4.25;;;;;;;;;;4906200;28;94847;-81
2023/07/01 12:54:01;;;;;;;10.75;4.72;;;;;;;;;;4919801;28;92015;-81
2023/07/01 12:56:43;;;;;;;11.05;4.70;;;;;;;;;;4906825;28;92504;-82
2023/07/01 12:59:10;;;;;;;6.82;4.45;;;;;;;;;;4912856;28;92166;-82
2023/07/01 13:01:37;;;;;;;7.82;4.78;;;;;;;;;;4905244;28;93024;-82
2023/07/01 13:04:04;;;;;;;8.27;4.28;;;;;;;;;;4899351;28;94010;-82
2023/07/01 13:06:32;;;;;;;7.50;5.28;;;;;;;;;;4914467;28;93359;-81
2023/07/01 13:09:03;;;;;;;5.57;3.80;;;;;;;;;;4915712;28;92111;-81
2023/07/01 13:11:32;;;;;;;6.72;3.60;;;;;;;;;;4918373;28;92491;-83
2023/07/01 13:14:06;;;;;;;4.95;4.20;;;;;;;;;;4913677;28;93278;-82
2023/07/01 13:16:36;;;;;;;8.45;4.13;;;;;;;;;;4910653;28;94756;-81
2023/07/01 13:19:07;;;;;;;6.28;3.90;;;;;;;;;;4901768;28;92692;-82
2023/07/01 13:21:40;;;;;;;5.63;3.97;;;;;;;;;;4919925;28;92505;-82
2023/07/01 13:24:09;;;;;;;8.35;4.07;;;;;;;;;;4914246;28;92124;-82
2023/07/01 13:26:36;;;;;;;6.13;3.92;;;;;;;;;;4898556;28;96317;-81
2023/07/01 13:29:04;;;;;;;7.15;3.80;;;;;;;;;;4916623;28;92424;-81
2023/07/01 13:31:30;;;;;;;4.57;2.88;;;;;;;;;;4915444;28;93733;-81
2023/07/01 13:33:59;;;;;;;6.32;3.05;;;;;;;;;;4904996;28;93658;-81
2023/07/01 13:36:25;;;;;;;3.70;2.03;;;;;;;;;;4912774;28;92381;-82
2023/07/01 13:38:52;;;;;;;2.70;1.73;;;;;;;;;;4915663;28;93164;-82
2023/07/01 13:41:22;;;;;;;2.83;1.77;;;;;;;;;;4905642;28;94926;-82
2023/07/01 13:43:50;;;;;;;2.17;2.03;;;;;;;;;;4909563;28;98417;-82
2023/07/01 13:46:16;;;;;;;3.08;1.50;;;;;;;;;;4899808;28;92653;-83
2023/07/01 13:48:44;;;;;;;1.83;1.42;;;;;;;;;;4898076;28;92658;-82
2023/07/01 13:51:14;;;;;;;2.38;1.50;;;;;;;;;;4907691;28;92692;-81
2023/07/01 13:53:41;;;;;;;2.58;1.60;;;;;;;;;;4914681;28;92408;-82
2023/07/01 13:56:08;;;;;;;3.38;1.60;;;;;;;;;;4904155;28;92619;-81
2023/07/01 13:58:43;;;;;;;9.38;1.75;;;;;;;;;;4915725;28;92737;-81
2023/07/01 14:01:10;;;;;;;1.55;1.45;;;;;;;;;;4908524;28;95739;-81
2023/07/01 14:03:45;;;;;;;2.45;1.90;;;;;;;;;;4900267;28;93767;-82
2023/07/01 14:06:12;;;;;;;2.65;1.70;;;;;;;;;;4908658;28;94841;-82
2023/07/01 14:08:39;;;;;;;3.15;1.60;;;;;;;;;;4916745;28;93462;-82
2023/07/01 14:11:07;;;;;;;3.85;1.95;;;;;;;;;;4917918;28;92805;-81
2023/07/01 14:13:34;;;;;;;3.28;1.98;;;;;;;;;;4899105;28;95018;-81
2023/07/01 14:16:00;;;;;;;4.03;2.28;;;;;;;;;;4906909;28;92483;-82
2023/07/01 14:18:28;;;;;;;3.95;2.08;;;;;;;;;;4926065;28;91870;-83
2023/07/01 14:20:56;;;;;;;5.32;2.53;;;;;;;;;;4918356;28;92497;-82
2023/07/01 14:23:31;;;;;;;4.13;2.55;;;;;;;;;;4900241;28;94215;-82
2023/07/01 14:25:58;;;;;;;2.85;2.50;;;;;;;;;;4918224;28;93665;-82
2023/07/01 14:28:25;;;;;;;8.18;2.63;;;;;;;;;;4898475;28;92428;-81
2023/07/01 14:31:02;;;;;;;6.72;2.55;;;;;;;;;;4901428;28;95012;-82
2023/07/01 14:33:34;;;;;;;4.65;2.50;;;;;;;;;;4903116;28;92564;-81
2023/07/01 14:36:04;;;;;;;4.53;2.40;;;;;;;;;;4912536;28;92963;-81
2023/07/01 14:38:35;;;;;;;3.60;1.92;;;;;;;;;;4914519;28;92515;-81
2023/07/01 14:41:02;;;;;;;12.13;2.88;;;;;;;;;;4898272;28;92173;-80
2023/07/01 14:43:30;;;;;;;4.07;2.17;;;;;;;;;;4898656;28;94091;-80
2023/07/01 14:45:56;;;;;;;4.35;1.73;;;;;;;;;;4899863;28;93192;-80
2023/07/01 14:48:23;;;;;;;4.25;1.80;;;;;;;;;;4889035;28;95904;-80